sim
Sign-in with your pilot id or email,
or register
Callsign
Passwort

Schedule Details

Flight Number: DLH475 (2)
Departure: Montreal Pierre Elliott Trudeau Airport (CYUL) at 00:15
Arrival: Munich Airport (EDDM) at 07:55
Route: Lufthansa Passenger Schedule. Enter filed route here before submitting Pirep.

Weather Information
Getting current METAR information for CYUL 231500Z 24009KT 15SM FEW050 OVC090 17/11 A2978 RMK SC2AC6 SLP086 DENSITY ALT 500FT
Getting current METAR information for EDDM 231520Z 25007KT 220V280 9999 FEW045 20/14 Q1009 NOSIG

Schedule Frequency

Route Map